sensor_id;sensor_type;location;lat;lon;timestamp;temperature;humidity
57026;DHT22;43961;52.940;6.834;2023-06-10T00:00:20;16.30;99.90
57026;DHT22;43961;52.940;6.834;2023-06-10T00:02:46;16.20;99.90
57026;DHT22;43961;52.940;6.834;2023-06-10T00:05:11;16.20;99.90
57026;DHT22;43961;52.940;6.834;2023-06-10T00:07:37;16.20;99.90
57026;DHT22;43961;52.940;6.834;2023-06-10T00:10:06;16.20;99.90
57026;DHT22;43961;52.940;6.834;2023-06-10T00:12:32;16.20;99.90
57026;DHT22;43961;52.940;6.834;2023-06-10T00:15:03;16.20;99.90
57026;DHT22;43961;52.940;6.834;2023-06-10T00:17:30;16.20;99.90
57026;DHT22;43961;52.940;6.834;2023-06-10T00:19:56;16.20;99.90
57026;DHT22;43961;52.940;6.834;2023-06-10T00:22:23;16.20;99.90
57026;DHT22;43961;52.940;6.834;2023-06-10T00:24:50;16.10;99.90
57026;DHT22;43961;52.940;6.834;2023-06-10T00:27:16;16.10;99.90
57026;DHT22;43961;52.940;6.834;2023-06-10T00:29:42;16.00;99.90
57026;DHT22;43961;52.940;6.834;2023-06-10T00:32:08;16.00;99.90
57026;DHT22;43961;52.940;6.834;2023-06-10T00:34:33;16.00;99.90
57026;DHT22;43961;52.940;6.834;2023-06-10T00:36:59;16.00;99.90
57026;DHT22;43961;52.940;6.834;2023-06-10T00:39:25;15.90;99.90
57026;DHT22;43961;52.940;6.834;2023-06-10T00:41:50;15.90;99.90
57026;DHT22;43961;52.940;6.834;2023-06-10T00:44:16;15.90;99.90
57026;DHT22;43961;52.940;6.834;2023-06-10T00:46:42;15.80;99.90
57026;DHT22;43961;52.940;6.834;2023-06-10T00:49:08;15.80;99.90
57026;DHT22;43961;52.940;6.834;2023-06-10T00:51:34;15.70;99.90
57026;DHT22;43961;52.940;6.834;2023-06-10T00:54:00;15.70;99.90
57026;DHT22;43961;52.940;6.834;2023-06-10T00:56:27;15.60;99.90
57026;DHT22;43961;52.940;6.834;2023-06-10T00:58:54;15.60;99.90
57026;DHT22;43961;52.940;6.834;2023-06-10T01:01:20;15.50;99.90
57026;DHT22;43961;52.940;6.834;2023-06-10T01:03:46;15.40;99.90
57026;DHT22;43961;52.940;6.834;2023-06-10T01:11:42;15.20;99.90
57026;DHT22;43961;52.940;6.834;2023-06-10T01:14:09;15.10;99.90
57026;DHT22;43961;52.940;6.834;2023-06-10T01:16:35;15.00;99.90
57026;DHT22;43961;52.940;6.834;2023-06-10T01:19:03;15.00;99.90
57026;DHT22;43961;52.940;6.834;2023-06-10T01:21:28;15.00;99.90
57026;DHT22;43961;52.940;6.834;2023-06-10T01:23:55;14.90;99.90
57026;DHT22;43961;52.940;6.834;2023-06-10T01:26:26;14.90;99.90
57026;DHT22;43961;52.940;6.834;2023-06-10T01:28:58;14.90;99.90
57026;DHT22;43961;52.940;6.834;2023-06-10T01:31:46;15.00;99.90
57026;DHT22;43961;52.940;6.834;2023-06-10T01:34:17;15.00;99.90
57026;DHT22;43961;52.940;6.834;2023-06-10T01:36:47;15.00;99.90
57026;DHT22;43961;52.940;6.834;2023-06-10T01:39:15;14.90;99.90
57026;DHT22;43961;52.940;6.834;2023-06-10T01:41:42;14.90;99.90
57026;DHT22;43961;52.940;6.834;2023-06-10T01:44:08;14.90;99.90
57026;DHT22;43961;52.940;6.834;2023-06-10T01:46:34;14.80;99.90
57026;DHT22;43961;52.940;6.834;2023-06-10T01:49:00;14.80;99.90
57026;DHT22;43961;52.940;6.834;2023-06-10T01:51:25;14.70;99.90
57026;DHT22;43961;52.940;6.834;2023-06-10T01:53:51;14.70;99.90
57026;DHT22;43961;52.940;6.834;2023-06-10T01:56:16;14.60;99.90
57026;DHT22;43961;52.940;6.834;2023-06-10T01:58:45;14.60;99.90
57026;DHT22;43961;52.940;6.834;2023-06-10T02:01:11;14.50;99.90
57026;DHT22;43961;52.940;6.834;2023-06-10T02:03:36;14.50;99.90
57026;DHT22;43961;52.940;6.834;2023-06-10T02:06:02;14.40;99.90
57026;DHT22;43961;52.940;6.834;2023-06-10T02:08:28;14.40;99.90
57026;DHT22;43961;52.940;6.834;2023-06-10T02:10:54;14.30;99.90
57026;DHT22;43961;52.940;6.834;2023-06-10T02:13:19;14.30;99.90
57026;DHT22;43961;52.940;6.834;2023-06-10T02:15:45;14.20;99.90
57026;DHT22;43961;52.940;6.834;2023-06-10T02:18:11;14.20;99.90
57026;DHT22;43961;52.940;6.834;2023-06-10T02:20:37;14.20;99.90
57026;DHT22;43961;52.940;6.834;2023-06-10T02:23:03;14.10;99.90
57026;DHT22;43961;52.940;6.834;2023-06-10T02:25:29;14.10;99.90
57026;DHT22;43961;52.940;6.834;2023-06-10T02:27:54;14.10;99.90
57026;DHT22;43961;52.940;6.834;2023-06-10T02:30:20;14.10;99.90
57026;DHT22;43961;52.940;6.834;2023-06-10T02:32:46;14.10;99.90
57026;DHT22;43961;52.940;6.834;2023-06-10T02:35:16;14.10;99.90
57026;DHT22;43961;52.940;6.834;2023-06-10T02:37:43;14.10;99.90
57026;DHT22;43961;52.940;6.834;2023-06-10T02:40:09;14.00;99.90
57026;DHT22;43961;52.940;6.834;2023-06-10T02:42:36;14.00;99.90
57026;DHT22;43961;52.940;6.834;2023-06-10T02:45:02;14.00;99.90
57026;DHT22;43961;52.940;6.834;2023-06-10T02:47:27;13.90;99.90
57026;DHT22;43961;52.940;6.834;2023-06-10T02:49:53;13.90;99.90
57026;DHT22;43961;52.940;6.834;2023-06-10T02:52:18;13.80;99.90
57026;DHT22;43961;52.940;6.834;2023-06-10T02:54:44;13.80;99.90
57026;DHT22;43961;52.940;6.834;2023-06-10T02:57:11;13.80;99.90
57026;DHT22;43961;52.940;6.834;2023-06-10T02:59:36;13.80;99.90
57026;DHT22;43961;52.940;6.834;2023-06-10T03:02:02;13.70;99.90
57026;DHT22;43961;52.940;6.834;2023-06-10T03:04:28;13.70;99.90
57026;DHT22;43961;52.940;6.834;2023-06-10T03:06:54;13.70;99.90
57026;DHT22;43961;52.940;6.834;2023-06-10T03:09:20;13.70;99.90
57026;DHT22;43961;52.940;6.834;2023-06-10T03:11:46;13.60;99.90
57026;DHT22;43961;52.940;6.834;2023-06-10T03:14:11;13.50;99.90
57026;DHT22;43961;52.940;6.834;2023-06-10T03:16:37;13.50;99.90
57026;DHT22;43961;52.940;6.834;2023-06-10T03:19:06;13.50;99.90
57026;DHT22;43961;52.940;6.834;2023-06-10T03:21:36;13.40;99.90
57026;DHT22;43961;52.940;6.834;2023-06-10T03:24:03;13.50;99.90
57026;DHT22;43961;52.940;6.834;2023-06-10T03:26:29;13.40;99.90
57026;DHT22;43961;52.940;6.834;2023-06-10T03:28:54;13.40;99.90
57026;DHT22;43961;52.940;6.834;2023-06-10T03:31:20;13.40;99.90
57026;DHT22;43961;52.940;6.834;2023-06-10T03:33:46;13.40;99.90
57026;DHT22;43961;52.940;6.834;2023-06-10T03:36:11;13.30;99.90
57026;DHT22;43961;52.940;6.834;2023-06-10T03:38:37;13.30;99.90
57026;DHT22;43961;52.940;6.834;2023-06-10T03:41:03;13.30;99.90
57026;DHT22;43961;52.940;6.834;2023-06-10T03:43:28;13.40;99.90
57026;DHT22;43961;52.940;6.834;2023-06-10T03:45:54;13.30;99.90
57026;DHT22;43961;52.940;6.834;2023-06-10T03:48:20;13.40;99.90
57026;DHT22;43961;52.940;6.834;2023-06-10T03:50:46;13.40;99.90
57026;DHT22;43961;52.940;6.834;2023-06-10T03:53:13;13.40;99.90
57026;DHT22;43961;52.940;6.834;2023-06-10T03:55:38;13.40;99.90
57026;DHT22;43961;52.940;6.834;2023-06-10T03:58:04;13.50;99.90
57026;DHT22;43961;52.940;6.834;2023-06-10T04:00:29;13.80;99.90
57026;DHT22;43961;52.940;6.834;2023-06-10T04:02:55;13.90;99.90
57026;DHT22;43961;52.940;6.834;2023-06-10T04:05:23;14.00;99.90
57026;DHT22;43961;52.940;6.834;2023-06-10T04:07:49;14.10;99.90
57026;DHT22;43961;52.940;6.834;2023-06-10T04:10:15;14.10;99.90
57026;DHT22;43961;52.940;6.834;2023-06-10T04:12:41;14.20;99.90
57026;DHT22;43961;52.940;6.834;2023-06-10T04:15:07;14.20;99.90
57026;DHT22;43961;52.940;6.834;2023-06-10T04:17:33;14.40;99.90
57026;DHT22;43961;52.940;6.834;2023-06-10T04:19:59;14.60;99.90
57026;DHT22;43961;52.940;6.834;2023-06-10T04:22:26;14.60;99.90
57026;DHT22;43961;52.940;6.834;2023-06-10T04:24:52;14.50;99.90
57026;DHT22;43961;52.940;6.834;2023-06-10T04:27:17;14.30;99.90
57026;DHT22;43961;52.940;6.834;2023-06-10T04:29:43;14.20;99.90
57026;DHT22;43961;52.940;6.834;2023-06-10T04:32:09;14.10;99.90
57026;DHT22;43961;52.940;6.834;2023-06-10T04:34:35;14.10;99.90
57026;DHT22;43961;52.940;6.834;2023-06-10T04:37:01;14.20;99.90
57026;DHT22;43961;52.940;6.834;2023-06-10T04:39:27;14.30;99.90
57026;DHT22;43961;52.940;6.834;2023-06-10T04:41:52;14.40;99.90
57026;DHT22;43961;52.940;6.834;2023-06-10T04:44:18;14.30;99.90
57026;DHT22;43961;52.940;6.834;2023-06-10T04:46:44;14.30;99.90
57026;DHT22;43961;52.940;6.834;2023-06-10T04:49:10;14.30;99.90
57026;DHT22;43961;52.940;6.834;2023-06-10T04:51:36;14.30;99.90
57026;DHT22;43961;52.940;6.834;2023-06-10T04:54:03;14.30;99.90
57026;DHT22;43961;52.940;6.834;2023-06-10T04:56:29;14.40;99.90
57026;DHT22;43961;52.940;6.834;2023-06-10T04:58:59;14.50;99.90
57026;DHT22;43961;52.940;6.834;2023-06-10T05:01:25;14.60;99.90
57026;DHT22;43961;52.940;6.834;2023-06-10T05:03:51;14.70;99.90
57026;DHT22;43961;52.940;6.834;2023-06-10T05:06:17;14.60;99.90
57026;DHT22;43961;52.940;6.834;2023-06-10T05:08:42;14.60;99.90
57026;DHT22;43961;52.940;6.834;2023-06-10T05:11:08;14.60;99.90
57026;DHT22;43961;52.940;6.834;2023-06-10T05:13:34;14.60;99.90
57026;DHT22;43961;52.940;6.834;2023-06-10T05:16:01;14.70;99.90
57026;DHT22;43961;52.940;6.834;2023-06-10T05:18:27;14.70;99.90
57026;DHT22;43961;52.940;6.834;2023-06-10T05:20:53;14.70;99.90
57026;DHT22;43961;52.940;6.834;2023-06-10T05:23:19;14.80;99.90
57026;DHT22;43961;52.940;6.834;2023-06-10T05:25:45;14.80;99.90
57026;DHT22;43961;52.940;6.834;2023-06-10T05:28:11;14.80;99.90
57026;DHT22;43961;52.940;6.834;2023-06-10T05:30:37;14.80;99.90
57026;DHT22;43961;52.940;6.834;2023-06-10T05:33:06;14.90;99.90
57026;DHT22;43961;52.940;6.834;2023-06-10T05:35:32;15.10;99.90
57026;DHT22;43961;52.940;6.834;2023-06-10T05:37:58;15.20;99.90
57026;DHT22;43961;52.940;6.834;2023-06-10T05:40:24;15.40;99.90
57026;DHT22;43961;52.940;6.834;2023-06-10T05:42:49;15.70;99.90
57026;DHT22;43961;52.940;6.834;2023-06-10T05:45:15;16.00;99.90
57026;DHT22;43961;52.940;6.834;2023-06-10T05:47:41;16.20;99.90
57026;DHT22;43961;52.940;6.834;2023-06-10T05:53:20;16.50;99.90
57026;DHT22;43961;52.940;6.834;2023-06-10T05:55:46;16.50;99.90
57026;DHT22;43961;52.940;6.834;2023-06-10T05:58:13;16.50;99.90
57026;DHT22;43961;52.940;6.834;2023-06-10T06:00:39;16.40;99.90
57026;DHT22;43961;52.940;6.834;2023-06-10T06:28:39;17.00;99.90
57026;DHT22;43961;52.940;6.834;2023-06-10T06:31:05;17.10;99.90
57026;DHT22;43961;52.940;6.834;2023-06-10T06:33:32;17.20;99.90
57026;DHT22;43961;52.940;6.834;2023-06-10T06:35:57;17.30;99.90
57026;DHT22;43961;52.940;6.834;2023-06-10T06:38:25;17.40;99.90
57026;DHT22;43961;52.940;6.834;2023-06-10T06:40:51;17.60;99.90
57026;DHT22;43961;52.940;6.834;2023-06-10T06:43:17;17.60;99.90
57026;DHT22;43961;52.940;6.834;2023-06-10T06:45:44;17.70;99.90
57026;DHT22;43961;52.940;6.834;2023-06-10T06:48:11;17.90;99.90
57026;DHT22;43961;52.940;6.834;2023-06-10T06:50:37;18.00;99.90
57026;DHT22;43961;52.940;6.834;2023-06-10T06:53:03;18.20;99.90
57026;DHT22;43961;52.940;6.834;2023-06-10T06:55:29;18.40;99.90
57026;DHT22;43961;52.940;6.834;2023-06-10T06:57:55;18.50;99.90
57026;DHT22;43961;52.940;6.834;2023-06-10T07:00:21;18.60;99.90
57026;DHT22;43961;52.940;6.834;2023-06-10T07:02:47;18.80;99.90
57026;DHT22;43961;52.940;6.834;2023-06-10T07:05:13;18.80;99.90
57026;DHT22;43961;52.940;6.834;2023-06-10T07:07:38;18.90;99.90
57026;DHT22;43961;52.940;6.834;2023-06-10T07:10:05;19.00;99.90
57026;DHT22;43961;52.940;6.834;2023-06-10T07:12:30;19.10;99.90
57026;DHT22;43961;52.940;6.834;2023-06-10T07:14:56;19.20;99.90
57026;DHT22;43961;52.940;6.834;2023-06-10T07:17:21;19.30;99.90
57026;DHT22;43961;52.940;6.834;2023-06-10T07:19:47;19.30;99.90
57026;DHT22;43961;52.940;6.834;2023-06-10T07:22:13;19.50;99.90
57026;DHT22;43961;52.940;6.834;2023-06-10T07:24:39;19.80;99.90
57026;DHT22;43961;52.940;6.834;2023-06-10T07:27:05;20.00;99.90
57026;DHT22;43961;52.940;6.834;2023-06-10T07:29:31;20.10;99.90
57026;DHT22;43961;52.940;6.834;2023-06-10T07:31:56;20.30;99.90
57026;DHT22;43961;52.940;6.834;2023-06-10T07:34:22;20.50;99.90
57026;DHT22;43961;52.940;6.834;2023-06-10T07:36:48;20.80;99.90
57026;DHT22;43961;52.940;6.834;2023-06-10T07:39:13;21.00;99.90
57026;DHT22;43961;52.940;6.834;2023-06-10T07:41:39;21.20;99.90
57026;DHT22;43961;52.940;6.834;2023-06-10T07:44:05;21.30;99.90
57026;DHT22;43961;52.940;6.834;2023-06-10T07:46:30;21.50;99.90
57026;DHT22;43961;52.940;6.834;2023-06-10T07:48:56;21.70;99.90
57026;DHT22;43961;52.940;6.834;2023-06-10T07:51:22;21.90;99.90
57026;DHT22;43961;52.940;6.834;2023-06-10T07:53:47;22.00;99.90
57026;DHT22;43961;52.940;6.834;2023-06-10T07:56:13;22.10;99.90
57026;DHT22;43961;52.940;6.834;2023-06-10T07:58:39;22.20;99.90
57026;DHT22;43961;52.940;6.834;2023-06-10T08:01:05;22.20;99.90
57026;DHT22;43961;52.940;6.834;2023-06-10T08:03:30;22.40;99.90
57026;DHT22;43961;52.940;6.834;2023-06-10T08:05:56;22.40;99.90
57026;DHT22;43961;52.940;6.834;2023-06-10T08:08:21;22.50;99.90
57026;DHT22;43961;52.940;6.834;2023-06-10T08:10:47;22.50;99.90
57026;DHT22;43961;52.940;6.834;2023-06-10T08:13:14;22.70;99.90
57026;DHT22;43961;52.940;6.834;2023-06-10T08:15:40;22.80;99.90
57026;DHT22;43961;52.940;6.834;2023-06-10T08:18:06;22.90;99.90
57026;DHT22;43961;52.940;6.834;2023-06-10T08:20:31;23.10;99.90
57026;DHT22;43961;52.940;6.834;2023-06-10T08:22:57;23.10;98.50
57026;DHT22;43961;52.940;6.834;2023-06-10T08:25:23;23.20;98.10
57026;DHT22;43961;52.940;6.834;2023-06-10T08:27:49;23.50;99.00
57026;DHT22;43961;52.940;6.834;2023-06-10T08:30:16;23.70;97.00
57026;DHT22;43961;52.940;6.834;2023-06-10T08:32:42;23.80;97.20
57026;DHT22;43961;52.940;6.834;2023-06-10T08:35:07;23.90;94.10
57026;DHT22;43961;52.940;6.834;2023-06-10T08:37:33;23.90;92.50
57026;DHT22;43961;52.940;6.834;2023-06-10T08:39:59;23.90;93.30
57026;DHT22;43961;52.940;6.834;2023-06-10T08:42:28;24.00;92.30
57026;DHT22;43961;52.940;6.834;2023-06-10T08:45:01;24.00;93.50
57026;DHT22;43961;52.940;6.834;2023-06-10T08:47:29;24.00;90.80
57026;DHT22;43961;52.940;6.834;2023-06-10T08:50:03;24.10;90.50
57026;DHT22;43961;52.940;6.834;2023-06-10T08:52:34;24.20;92.40
57026;DHT22;43961;52.940;6.834;2023-06-10T08:55:04;24.40;92.20
57026;DHT22;43961;52.940;6.834;2023-06-10T08:57:30;24.80;91.00
57026;DHT22;43961;52.940;6.834;2023-06-10T08:59:57;25.00;89.90
57026;DHT22;43961;52.940;6.834;2023-06-10T09:02:24;25.10;84.00
57026;DHT22;43961;52.940;6.834;2023-06-10T09:04:50;25.10;87.50
57026;DHT22;43961;52.940;6.834;2023-06-10T09:07:17;25.30;86.70
57026;DHT22;43961;52.940;6.834;2023-06-10T09:09:44;25.60;87.10
57026;DHT22;43961;52.940;6.834;2023-06-10T09:12:10;25.80;85.80
57026;DHT22;43961;52.940;6.834;2023-06-10T09:14:37;26.00;84.10
57026;DHT22;43961;52.940;6.834;2023-06-10T09:17:03;26.10;85.30
57026;DHT22;43961;52.940;6.834;2023-06-10T09:19:30;26.30;82.70
57026;DHT22;43961;52.940;6.834;2023-06-10T09:21:56;26.30;77.50
57026;DHT22;43961;52.940;6.834;2023-06-10T09:24:22;26.30;75.60
57026;DHT22;43961;52.940;6.834;2023-06-10T09:26:49;26.40;77.90
57026;DHT22;43961;52.940;6.834;2023-06-10T09:29:16;26.40;75.10
57026;DHT22;43961;52.940;6.834;2023-06-10T09:31:44;26.30;74.60
57026;DHT22;43961;52.940;6.834;2023-06-10T09:34:15;26.30;76.00
57026;DHT22;43961;52.940;6.834;2023-06-10T09:36:42;26.60;74.30
57026;DHT22;43961;52.940;6.834;2023-06-10T09:39:17;26.90;72.00
57026;DHT22;43961;52.940;6.834;2023-06-10T09:41:44;26.90;69.80
57026;DHT22;43961;52.940;6.834;2023-06-10T09:44:18;26.70;69.40
57026;DHT22;43961;52.940;6.834;2023-06-10T09:46:49;26.40;68.40
57026;DHT22;43961;52.940;6.834;2023-06-10T09:49:18;26.30;70.30
57026;DHT22;43961;52.940;6.834;2023-06-10T09:51:54;26.20;66.30
57026;DHT22;43961;52.940;6.834;2023-06-10T09:54:21;26.30;68.10
57026;DHT22;43961;52.940;6.834;2023-06-10T09:56:48;26.20;61.20
57026;DHT22;43961;52.940;6.834;2023-06-10T09:59:13;26.30;68.30
57026;DHT22;43961;52.940;6.834;2023-06-10T10:01:39;26.50;65.20
57026;DHT22;43961;52.940;6.834;2023-06-10T10:04:05;26.50;62.60
57026;DHT22;43961;52.940;6.834;2023-06-10T10:06:31;26.50;60.80
57026;DHT22;43961;52.940;6.834;2023-06-10T10:08:57;26.50;64.70
57026;DHT22;43961;52.940;6.834;2023-06-10T10:11:23;26.60;64.80
57026;DHT22;43961;52.940;6.834;2023-06-10T10:13:52;26.90;65.20
57026;DHT22;43961;52.940;6.834;2023-06-10T10:16:26;26.90;64.10
57026;DHT22;43961;52.940;6.834;2023-06-10T10:19:01;26.90;59.40
57026;DHT22;43961;52.940;6.834;2023-06-10T10:21:32;27.10;59.70
57026;DHT22;43961;52.940;6.834;2023-06-10T10:24:19;27.20;58.50
57026;DHT22;43961;52.940;6.834;2023-06-10T10:26:48;27.40;60.70
57026;DHT22;43961;52.940;6.834;2023-06-10T10:29:20;27.20;56.90
57026;DHT22;43961;52.940;6.834;2023-06-10T10:31:51;27.10;57.40
57026;DHT22;43961;52.940;6.834;2023-06-10T10:34:25;27.20;60.10
57026;DHT22;43961;52.940;6.834;2023-06-10T10:36:54;27.30;61.60
57026;DHT22;43961;52.940;6.834;2023-06-10T10:39:20;27.40;57.50
57026;DHT22;43961;52.940;6.834;2023-06-10T10:41:47;27.50;54.10
57026;DHT22;43961;52.940;6.834;2023-06-10T10:44:13;27.50;54.70
57026;DHT22;43961;52.940;6.834;2023-06-10T10:46:42;27.60;57.20
57026;DHT22;43961;52.940;6.834;2023-06-10T10:49:09;27.60;57.10
57026;DHT22;43961;52.940;6.834;2023-06-10T10:51:35;27.60;59.20
57026;DHT22;43961;52.940;6.834;2023-06-10T10:54:14;27.70;57.70
57026;DHT22;43961;52.940;6.834;2023-06-10T10:59:51;28.00;58.20
57026;DHT22;43961;52.940;6.834;2023-06-10T11:02:18;28.20;58.10
57026;DHT22;43961;52.940;6.834;2023-06-10T11:04:46;28.40;57.00
57026;DHT22;43961;52.940;6.834;2023-06-10T11:07:12;28.60;56.60
57026;DHT22;43961;52.940;6.834;2023-06-10T11:12:24;28.60;55.40
57026;DHT22;43961;52.940;6.834;2023-06-10T11:14:59;28.70;54.30
57026;DHT22;43961;52.940;6.834;2023-06-10T11:17:25;28.80;53.80
57026;DHT22;43961;52.940;6.834;2023-06-10T11:19:50;28.90;53.70
57026;DHT22;43961;52.940;6.834;2023-06-10T11:22:17;28.90;52.80
57026;DHT22;43961;52.940;6.834;2023-06-10T11:24:50;29.00;54.90
57026;DHT22;43961;52.940;6.834;2023-06-10T11:27:20;29.00;54.10
57026;DHT22;43961;52.940;6.834;2023-06-10T11:30:19;29.00;54.80
57026;DHT22;43961;52.940;6.834;2023-06-10T11:32:45;29.10;53.60
57026;DHT22;43961;52.940;6.834;2023-06-10T11:35:17;29.00;52.50
57026;DHT22;43961;52.940;6.834;2023-06-10T11:37:43;28.90;51.70
57026;DHT22;43961;52.940;6.834;2023-06-10T11:40:10;28.90;51.60
57026;DHT22;43961;52.940;6.834;2023-06-10T11:42:42;28.90;51.50
57026;DHT22;43961;52.940;6.834;2023-06-10T11:45:08;28.90;52.00
57026;DHT22;43961;52.940;6.834;2023-06-10T11:47:33;29.10;51.20
57026;DHT22;43961;52.940;6.834;2023-06-10T11:49:59;29.20;51.30
57026;DHT22;43961;52.940;6.834;2023-06-10T11:52:31;29.30;50.60
57026;DHT22;43961;52.940;6.834;2023-06-10T11:54:59;29.30;49.30
57026;DHT22;43961;52.940;6.834;2023-06-10T11:57:25;29.10;49.50
57026;DHT22;43961;52.940;6.834;2023-06-10T11:59:51;29.00;50.40
57026;DHT22;43961;52.940;6.834;2023-06-10T12:02:17;29.10;50.40
57026;DHT22;43961;52.940;6.834;2023-06-10T12:04:45;29.10;51.20
57026;DHT22;43961;52.940;6.834;2023-06-10T12:07:18;29.10;50.40
57026;DHT22;43961;52.940;6.834;2023-06-10T12:09:44;28.90;50.00
57026;DHT22;43961;52.940;6.834;2023-06-10T12:12:10;28.90;51.00
57026;DHT22;43961;52.940;6.834;2023-06-10T12:14:59;29.10;50.20
57026;DHT22;43961;52.940;6.834;2023-06-10T12:19:57;29.40;48.90
57026;DHT22;43961;52.940;6.834;2023-06-10T12:22:24;29.30;48.40
57026;DHT22;43961;52.940;6.834;2023-06-10T12:25:04;29.40;47.00
57026;DHT22;43961;52.940;6.834;2023-06-10T12:27:30;29.50;48.60
57026;DHT22;43961;52.940;6.834;2023-06-10T12:29:57;29.40;49.30
57026;DHT22;43961;52.940;6.834;2023-06-10T12:32:36;29.10;48.90
57026;DHT22;43961;52.940;6.834;2023-06-10T12:35:05;28.90;49.10
57026;DHT22;43961;52.940;6.834;2023-06-10T12:37:32;29.00;50.30
57026;DHT22;43961;52.940;6.834;2023-06-10T12:40:03;29.10;49.90
57026;DHT22;43961;52.940;6.834;2023-06-10T12:42:30;29.20;47.60
57026;DHT22;43961;52.940;6.834;2023-06-10T12:44:57;28.90;45.30
57026;DHT22;43961;52.940;6.834;2023-06-10T12:47:31;28.80;47.20
57026;DHT22;43961;52.940;6.834;2023-06-10T12:50:01;28.80;46.10
57026;DHT22;43961;52.940;6.834;2023-06-10T12:52:28;28.90;47.60
57026;DHT22;43961;52.940;6.834;2023-06-10T12:54:54;28.90;47.30
57026;DHT22;43961;52.940;6.834;2023-06-10T12:57:23;28.80;48.10
57026;DHT22;43961;52.940;6.834;2023-06-10T12:59:49;28.70;47.90
57026;DHT22;43961;52.940;6.834;2023-06-10T13:02:21;28.80;48.80
57026;DHT22;43961;52.940;6.834;2023-06-10T13:04:49;28.80;49.00
57026;DHT22;43961;52.940;6.834;2023-06-10T13:07:16;28.70;49.20
57026;DHT22;43961;52.940;6.834;2023-06-10T13:09:42;28.70;49.20
57026;DHT22;43961;52.940;6.834;2023-06-10T13:12:08;28.80;49.00
57026;DHT22;43961;52.940;6.834;2023-06-10T13:14:35;28.90;50.30
57026;DHT22;43961;52.940;6.834;2023-06-10T13:17:04;28.90;49.70
57026;DHT22;43961;52.940;6.834;2023-06-10T13:19:33;29.00;46.80
57026;DHT22;43961;52.940;6.834;2023-06-10T13:21:59;28.90;46.90
57026;DHT22;43961;52.940;6.834;2023-06-10T13:24:25;28.70;47.90
57026;DHT22;43961;52.940;6.834;2023-06-10T13:26:51;28.60;47.70
57026;DHT22;43961;52.940;6.834;2023-06-10T13:29:17;28.70;47.80
57026;DHT22;43961;52.940;6.834;2023-06-10T13:31:43;28.70;48.40
57026;DHT22;43961;52.940;6.834;2023-06-10T13:34:08;28.70;48.10
57026;DHT22;43961;52.940;6.834;2023-06-10T13:36:34;28.70;48.30
57026;DHT22;43961;52.940;6.834;2023-06-10T13:39:01;28.70;46.90
57026;DHT22;43961;52.940;6.834;2023-06-10T13:41:26;28.70;47.10
57026;DHT22;43961;52.940;6.834;2023-06-10T13:43:54;28.60;48.00
57026;DHT22;43961;52.940;6.834;2023-06-10T13:46:21;28.60;48.10
57026;DHT22;43961;52.940;6.834;2023-06-10T13:48:47;28.60;48.20
57026;DHT22;43961;52.940;6.834;2023-06-10T13:51:13;28.70;49.40
57026;DHT22;43961;52.940;6.834;2023-06-10T13:53:39;28.80;48.70
57026;DHT22;43961;52.940;6.834;2023-06-10T13:56:04;28.70;46.40
57026;DHT22;43961;52.940;6.834;2023-06-10T13:58:30;28.70;48.50
57026;DHT22;43961;52.940;6.834;2023-06-10T14:00:56;28.80;48.10
57026;DHT22;43961;52.940;6.834;2023-06-10T14:03:23;28.90;48.10
57026;DHT22;43961;52.940;6.834;2023-06-10T14:05:49;29.00;47.50
57026;DHT22;43961;52.940;6.834;2023-06-10T14:08:15;29.20;47.70
57026;DHT22;43961;52.940;6.834;2023-06-10T14:10:41;29.30;46.50
57026;DHT22;43961;52.940;6.834;2023-06-10T14:13:06;29.20;42.00
57026;DHT22;43961;52.940;6.834;2023-06-10T14:15:32;29.30;41.20
57026;DHT22;43961;52.940;6.834;2023-06-10T14:17:58;29.20;41.10
57026;DHT22;43961;52.940;6.834;2023-06-10T14:20:32;29.30;42.10
57026;DHT22;43961;52.940;6.834;2023-06-10T14:23:00;29.30;39.20
57026;DHT22;43961;52.940;6.834;2023-06-10T14:25:30;29.40;40.90
57026;DHT22;43961;52.940;6.834;2023-06-10T14:27:56;29.40;40.60
57026;DHT22;43961;52.940;6.834;2023-06-10T14:30:23;29.40;39.20
57026;DHT22;43961;52.940;6.834;2023-06-10T14:32:48;29.30;37.80
57026;DHT22;43961;52.940;6.834;2023-06-10T14:35:14;29.10;38.20
57026;DHT22;43961;52.940;6.834;2023-06-10T14:37:40;28.90;39.40
57026;DHT22;43961;52.940;6.834;2023-06-10T14:40:06;28.80;38.70
57026;DHT22;43961;52.940;6.834;2023-06-10T14:42:32;28.70;38.10
57026;DHT22;43961;52.940;6.834;2023-06-10T14:44:58;28.70;39.30
57026;DHT22;43961;52.940;6.834;2023-06-10T14:47:23;28.60;39.60
57026;DHT22;43961;52.940;6.834;2023-06-10T14:49:49;28.60;40.20
57026;DHT22;43961;52.940;6.834;2023-06-10T14:52:15;28.50;39.80
57026;DHT22;43961;52.940;6.834;2023-06-10T14:54:41;28.50;40.90
57026;DHT22;43961;52.940;6.834;2023-06-10T14:57:07;28.60;41.00
57026;DHT22;43961;52.940;6.834;2023-06-10T14:59:33;28.60;39.40
57026;DHT22;43961;52.940;6.834;2023-06-10T15:02:00;28.50;39.20
57026;DHT22;43961;52.940;6.834;2023-06-10T15:04:27;28.50;39.60
57026;DHT22;43961;52.940;6.834;2023-06-10T15:06:52;28.50;40.60
57026;DHT22;43961;52.940;6.834;2023-06-10T15:09:18;28.50;39.90
57026;DHT22;43961;52.940;6.834;2023-06-10T15:11:47;28.60;41.00
57026;DHT22;43961;52.940;6.834;2023-06-10T15:14:12;28.70;41.00
57026;DHT22;43961;52.940;6.834;2023-06-10T15:16:38;28.70;40.50
57026;DHT22;43961;52.940;6.834;2023-06-10T15:19:04;28.70;39.90
57026;DHT22;43961;52.940;6.834;2023-06-10T15:21:32;28.60;40.10
57026;DHT22;43961;52.940;6.834;2023-06-10T15:23:57;28.60;41.30
57026;DHT22;43961;52.940;6.834;2023-06-10T15:26:23;28.60;39.30
57026;DHT22;43961;52.940;6.834;2023-06-10T15:28:49;28.60;40.30
57026;DHT22;43961;52.940;6.834;2023-06-10T15:31:14;28.60;41.30
57026;DHT22;43961;52.940;6.834;2023-06-10T15:33:40;28.60;41.10
57026;DHT22;43961;52.940;6.834;2023-06-10T15:36:06;28.50;41.50
57026;DHT22;43961;52.940;6.834;2023-06-10T15:38:32;28.50;41.60
57026;DHT22;43961;52.940;6.834;2023-06-10T15:40:57;28.50;41.50
57026;DHT22;43961;52.940;6.834;2023-06-10T15:43:23;28.40;41.30
57026;DHT22;43961;52.940;6.834;2023-06-10T15:45:49;28.40;41.40
57026;DHT22;43961;52.940;6.834;2023-06-10T15:48:14;28.40;41.20
57026;DHT22;43961;52.940;6.834;2023-06-10T15:50:40;28.30;41.40
57026;DHT22;43961;52.940;6.834;2023-06-10T15:53:06;28.30;42.10
57026;DHT22;43961;52.940;6.834;2023-06-10T15:55:31;28.30;42.00
57026;DHT22;43961;52.940;6.834;2023-06-10T15:57:57;28.30;42.30
57026;DHT22;43961;52.940;6.834;2023-06-10T16:00:25;28.20;41.30
57026;DHT22;43961;52.940;6.834;2023-06-10T16:02:50;28.10;42.70
57026;DHT22;43961;52.940;6.834;2023-06-10T16:05:16;28.20;42.20
57026;DHT22;43961;52.940;6.834;2023-06-10T16:07:42;28.20;41.60
57026;DHT22;43961;52.940;6.834;2023-06-10T16:10:08;28.10;42.00